WEATHER DATA

YESTERDAY
Time Temp. Dewp. Hum. Bar.
00:00 19.1 9.6 54 1008.3
00:09 19.1 9.6 54 1008.2
00:19 19.1 9.6 54 1008.1
00:30 18.9 9.4 54 1007.9
00:40 18.9 9.4 54 1007.9
00:49 18.7 9.2 54 1007.8
00:59 18.7 8.9 53 1007.7
01:10 18.8 9 53 1007.7
01:20 18.7 8.9 53 1007.6
01:30 18.6 8.6 52 1007.6
01:40 18.7 8.7 52 1007.6
01:50 18.6 8.6 52 1007.5
02:00 18.5 8.8 53 1007.5
02:10 18 8.3 53 1007.4
02:20 18 8.3 53 1007.4
02:30 18.1 8.4 53 1007.3
02:40 17.9 8.2 53 1007.3
02:51 17.8 8.4 54 1007.2
03:01 17.7 8 53 1007.2
03:10 17.6 8.2 54 1007.1
03:20 17.4 8 54 1006.9
03:31 17.3 7.9 54 1006.8
03:41 17.2 7.8 54 1006.7
03:50 17.1 8 55 1006.7
04:01 17.1 8 55 1006.5
04:11 17 7.9 55 1006.4
04:21 16.6 7.5 55 1006.4
04:31 16.2 7.4 56 1006.2
04:41 15.8 7.6 58 1006.3
04:51 15.4 7.2 58 1006.1
05:01 15.2 7 58 1006
05:12 15.3 7.1 58 1005.8
05:21 15.5 7.3 58 1005.8
05:31 15.5 7 57 1005.8
05:41 15.2 7.3 59 1005.8
05:52 15.4 7.2 58 1005.8
06:02 15.3 7.3 59 1005.8
06:11 15.1 7.6 61 1005.8
06:22 14.9 7.2 60 1005.8
06:32 14.7 7.3 61 1006.1
06:42 14.8 7.1 60 1006
06:51 14.8 7.1 60 1006
07:02 15.1 7.2 59 1005.8
07:12 15.4 7.4 59 1006
07:22 15.7 7.5 58 1006
07:33 16 7.8 58 1005.8
07:42 16.2 7.7 57 1005.8
07:52 16.6 8.1 57 1005.7
08:02 17.1 8.3 56 1006.1
08:13 17.3 8.2 55 1006.1
08:22 17.3 8.4 56 1006.4
08:32 18.2 9.3 56 1006.5
08:43 19.3 9.5 53 1006.5
08:53 20.5 10 51 1006.5
09:03 22.1 11.2 50 1006.4
09:12 23.5 10.9 45 1006.3
09:23 24.5 10 40 1006.2
09:33 25.7 11.1 40 1006.2
09:43 27.2 11.3 37 1006.1
09:53 28 12.4 38 1006
10:03 28.9 11.5 34 1006
10:13 29.3 12.3 35 1006
10:23 29.7 12.6 35 1006
10:34 30.8 14.4 37 1005.8
10:43 31.8 13.6 33 1005.7
10:53 31.2 12.6 32 1005.7
11:04 31.4 12.7 32 1005.6
11:14 31.7 13.5 33 1005.6
11:23 31.7 12 30 1005.5
11:33 31.9 12.2 30 1005.6
11:44 31.9 12.2 30 1005.6
11:54 32.2 12.4 30 1005.5
12:04 32.3 12.5 30 1005.5
12:14 32.6 13.8 32 1005.4
12:24 33.7 12.7 28 1005.4
12:34 33.8 12.8 28 1005.4
12:44 33 12.1 28 1005.3
12:55 33.2 12.8 29 1005.4
13:04 33 13.6 31 1005.3
13:14 33.7 13.7 30 1005.1
13:25 34.5 13.9 29 1005.1
13:35 32.7 12.9 30 1005.1
13:44 30.1 12.1 33 1004.7
13:54 28 10.7 34 1004.6
14:05 26.5 10.6 37 1004.6
14:15 25.4 10.5 39 1004.6
14:25 24.9 10.8 41 1004.4
14:35 25.1 10.9 41 1004.4
14:45 25.2 10.7 40 1004.4
14:55 25.1 11.3 42 1004.3
15:05 25.4 11.9 43 1004.3
15:15 25.4 11.6 42 1004.3
15:25 25.4 11.6 42 1004.4
15:35 25.4 11.6 42 1004.4
15:46 25.1 10.9 41 1004.3
15:55 24.7 10.9 42 1004.3
16:05 24.2 11.5 45 1004.3
16:15 24.2 11.9 46 1004.2
16:26 24.2 11.9 46 1004.1
16:36 24.2 11.9 46 1004.1
16:45 24.1 11.4 45 1004
16:56 24.1 11.4 45 1003.9
17:06 24 11.7 46 1003.9
17:16 23.9 11.3 45 1003.7
17:26 23.8 11.2 45 1003.6
17:36 23.4 11.1 46 1003.6
17:46 23 12.3 51 1003.6
17:56 22.4 12.1 52 1003.6
18:07 21.6 11.6 53 1003.7
18:16 21 11.6 55 1004
18:26 20.5 12 58 1003.7
18:36 19.8 12.3 62 1003.9
18:47 19.5 12.3 63 1003.9
18:56 19.2 12.7 66 1004.2
19:06 18.9 12.9 68 1004.5
19:17 18.8 13 69 1004.6
19:27 18.6 12.6 68 1004.7
19:37 18.3 12.7 70 1004.7
19:47 18 12.5 70 1005
19:57 17.7 12.2 70 1005.3
20:07 17.1 12 72 1005.5
20:17 16.6 11.7 73 1005.8
20:27 16.2 11.6 74 1006.2
20:37 15.7 11.3 75 1006.2
20:47 15.3 11.1 76 1006.4
20:57 15 11.2 78 1006.5
21:08 14.7 11.3 80 1006.7
21:17 14.6 11 79 1006.7
21:27 14.5 10.9 79 1006.7
21:38 14.3 10.7 79 1006.9
21:48 14.3 10.9 80 1006.7
21:57 14.1 11.1 82 1006.7
22:08 14 11.3 84 1006.8
22:18 14 11 82 1006.8
22:28 13.9 10.9 82 1007.1
22:38 13.8 10.8 82 1007.2
22:48 13.7 10.7 82 1007.1
22:58 13.7 10.9 83 1007.3
23:18 13.5 10.9 84 1007.6
23:28 13.4 10.9 85 1007.6
23:38 13.3 10.8 85 1007.6
23:48 13.1 10.6 85 1007.3

DAY STATISTIC

2021-05-11
TEMPERATURE
AVERAGE
21.0
HIGH
34.5
13:25
LOW
13.1
23:48
PRESSURE
AVERAGE
1005.8
HIGH
1008.3
00:00
LOW
1003.6
17:26
DEWPOINT
AVERAGE
10.4
HIGH
14.4
10:34
LOW
7.0
05:01
HUMIDITY
AVERAGE
53
HIGH
85
23:28
LOW
28
12:24
TEMPERATURE (°C)
LOW
13.1
HIGH
34.5
AVERAGE
21.0
PRESSURE (hpa)
LOW
1003.6
HIGH
1008.3
AVERAGE
1005.8
DEVICE